SKUC/AUC METAR and TAF weather

Enter ICAO airport designator
Station Type Date Time Source
SKUC METAR 2019/06/18 12:00 UTC NOAA

SKUC 181200Z 00000KT 9999 BKN005 SCT010 25/24 A2997


Station Type Date Time Source
SKUC Decoded METAR 2019/06/18 12:00 UTC NOAA

Arauca / Santiago Perez, Colombia (SKUC) 07-04N 070-44W 128M
Jun 18, 2019 - 08:00 AM EDT / 2019.06.18 1200 UTC
Wind: Calm:0
Visibility: greater than 7 mile(s):0
Sky conditions: mostly cloudy
Temperature: 77 F (25 C)
Dew Point: 75 F (24 C)
Relative Humidity: 94%
Pressure (altimeter): 29.97 in. Hg (1014 hPa)
ob: SKUC 181200Z 00000KT 9999 BKN005 SCT010 25/24 A2997
cycle: 12

Station Type Date Time Source
SKUC TAF UTC NOAA

Error!

Example: see airport list